CDT,Max TemperatureF,Mean TemperatureF,Min TemperatureF,Max Dew PointF,MeanDew PointF,Min DewpointF,Max Humidity, Mean Humidity, Min Humidity, Max Sea Level PressureIn, Mean Sea Level PressureIn, Min Sea Level PressureIn, Max VisibilityMiles, Mean VisibilityMiles, Min VisibilityMiles, Max Wind SpeedMPH, Mean Wind SpeedMPH, Max Gust SpeedMPH,PrecipitationIn, CloudCover, Events, WindDirDegrees
2013-9-1,86,76,65,70,63,53,84,59,34,30.01,29.89,29.74,10,10,10,23,10,32,0.01,2,Rain-Thunderstorm,354
2013-9-2,84,71,57,61,58,55,93,68,43,30.10,30.04,30.00,10,10,10,13,3,17,0.00,0,,23
2013-9-3,86,72,58,60,58,55,87,62,37,30.09,30.04,29.99,10,10,10,13,6,16,0.00,0,,154
2013-9-4,87,73,58,62,58,55,87,62,37,30.13,30.07,30.02,10,10,6,16,7,20,0.00,0,,154
2013-9-5,89,75,60,66,62,58,90,67,43,30.16,30.10,30.05,10,10,10,15,8,20,0.00,0,,132
2013-9-6,96,80,64,65,63,61,87,60,33,30.06,29.98,29.88,10,10,10,21,11,26,0.00,0,,170
2013-9-7,102,86,70,65,63,58,79,51,23,29.92,29.87,29.82,10,10,10,20,11,24,0.00,0,,193
2013-9-8,102,85,68,63,62,58,78,51,24,29.86,29.81,29.76,10,10,10,17,8,22,0.00,0,,191
2013-9-9,96,85,73,61,57,53,58,41,24,29.84,29.81,29.78,10,10,10,28,16,35,0.00,0,,193
2013-9-10,97,85,73,62,60,57,57,44,31,29.99,29.92,29.85,10,10,10,23,14,32,0.00,1,Thunderstorm,194
2013-9-11,93,80,67,70,65,59,93,66,38,30.17,30.07,30.00,10,10,2,21,7,26,0.34,4,Rain-Thunderstorm,226
2013-9-12,84,74,64,70,66,55,100,76,51,30.21,30.15,30.09,10,7,1,12,5,15,T,6,Rain,53
2013-9-13,77,67,56,55,51,47,86,61,36,30.19,30.13,30.05,10,10,10,13,6,18,0.00,1,,106
2013-9-14,82,68,53,61,54,49,89,61,33,30.05,29.96,29.85,10,10,10,20,10,28,0.00,0,,154
2013-9-15,77,69,60,65,60,55,87,78,68,30.20,30.00,29.85,10,10,9,18,11,25,T,6,Rain,34
2013-9-16,60,58,56,58,55,53,100,93,86,30.27,30.22,30.16,10,6,2,14,7,20,0.19,8,Rain,78
2013-9-17,81,70,59,67,62,57,100,81,62,30.17,30.03,29.84,10,5,0,21,11,26,0.02,6,Fog-Rain-Thunderstorm,144
2013-9-18,94,82,69,67,64,60,90,63,36,29.85,29.75,29.66,10,10,10,31,19,43,0.00,0,,187
2013-9-19,86,73,59,64,59,50,72,60,48,30.04,29.82,29.70,10,10,10,24,14,31,T,2,Thunderstorm,285
2013-9-20,77,64,50,52,46,42,86,59,31,30.14,30.05,29.99,10,10,10,15,7,20,0.00,0,,344
2013-9-21,85,66,47,51,46,42,93,58,23,30.01,29.93,29.84,10,10,4,16,7,21,0.00,0,,194
2013-9-22,82,71,59,51,48,45,75,52,28,29.88,29.82,29.75,10,10,2,28,17,36,0.00,0,Rain,168
2013-9-23,80,68,55,51,48,46,72,52,32,29.77,29.69,29.60,10,10,6,35,18,45,T,2,Thunderstorm,162
2013-9-24,74,65,56,55,53,51,86,68,49,29.91,29.82,29.68,10,10,8,25,12,32,0.00,4,,307
2013-9-25,81,64,47,57,53,48,100,70,39,29.93,29.84,29.70,10,6,0,22,10,29,0.00,0,Fog,161
2013-9-26,93,79,64,61,56,54,73,51,28,29.76,29.70,29.68,10,10,9,32,20,43,0.00,0,,152
2013-9-27,90,80,70,60,57,54,61,50,38,29.77,29.73,29.66,10,10,7,30,21,42,T,0,,163
2013-9-28,74,62,49,63,50,32,77,55,33,30.09,29.89,29.64,10,8,1,30,12,36,0.57,4,Rain,293
2013-9-29,77,63,48,45,42,39,77,52,26,30.09,30.01,29.89,10,8,2,20,11,25,0.00,0,,193
2013-9-30,82,67,52,50,47,45,83,56,28,29.87,29.81,29.74,10,10,10,20,13,24,0.00,0,,189